Time;durP1;ratioP1;P1;durP2;ratioP2;P2;SDS_P1;SDS_P2;PMS_P1;PMS_P2;Temp;Humidity;BMP_temperature;BMP_pressure;BME280_temperature;BME280_humidity;BME280_pressure;Samples;Min_cycle;Max_cycle;Signal;HPM_P1;HPM_P2
2023/08/15 00:01:18;;;;;;;2.92;2.00;;;22.40;99.90;;;22.88;100.00;100723.72;5164904;28;20050;-69
2023/08/15 00:03:51;;;;;;;2.50;2.17;;;22.40;99.90;;;22.85;100.00;100729.94;5147478;28;20121;-70
2023/08/15 00:06:23;;;;;;;3.22;2.08;;;22.30;99.90;;;22.82;100.00;100718.47;5163866;28;20053;-69
2023/08/15 00:08:57;;;;;;;4.43;2.03;;;22.40;99.90;;;22.82;100.00;100716.72;5147732;28;20039;-69
2023/08/15 00:11:29;;;;;;;3.40;2.22;;;22.40;99.90;;;22.81;100.00;100712.28;5164366;28;20042;-70
2023/08/15 00:14:01;;;;;;;2.22;1.83;;;22.30;99.90;;;22.80;100.00;100710.53;5163615;28;20045;-70
2023/08/15 00:16:33;;;;;;;2.55;1.88;;;22.30;99.90;;;22.78;100.00;100701.72;5157056;28;20050;-70
2023/08/15 00:19:05;;;;;;;2.50;1.90;;;22.30;99.90;;;22.75;100.00;100699.09;5162864;28;20058;-70
2023/08/15 00:21:39;;;;;;;4.10;1.90;;;22.20;99.90;;;22.72;100.00;100685.88;5164870;28;20049;-70
2023/08/15 00:24:12;;;;;;;2.50;1.88;;;22.20;99.90;;;22.68;100.00;100677.06;5162379;28;20081;-70
2023/08/15 00:26:45;;;;;;;4.03;2.20;;;22.20;99.90;;;22.65;100.00;100678.91;5147605;28;20046;-70
2023/08/15 00:29:17;;;;;;;2.55;1.92;;;22.10;99.90;;;22.63;100.00;100675.41;5164541;28;20046;-69
2023/08/15 00:31:49;;;;;;;2.75;1.77;;;22.10;99.90;;;22.59;100.00;100689.63;5146994;28;20528;-70
2023/08/15 00:34:21;;;;;;;8.95;1.90;;;22.10;99.90;;;22.54;100.00;100692.34;5164166;28;20117;-70
2023/08/15 00:36:53;;;;;;;1.83;1.60;;;22.00;99.90;;;22.50;100.00;100700.41;5163560;28;20081;-70
2023/08/15 00:39:27;;;;;;;2.13;1.70;;;22.00;99.90;;;22.44;100.00;100696.94;5163047;28;20385;-69
2023/08/15 00:42:00;;;;;;;2.45;1.83;;;22.00;99.90;;;22.40;100.00;100705.84;5163019;28;20803;-70
2023/08/15 00:44:32;;;;;;;2.22;1.70;;;21.90;99.90;;;22.38;100.00;100702.34;5147109;28;20444;-70
2023/08/15 00:47:05;;;;;;;3.00;1.95;;;21.90;99.90;;;22.37;100.00;100705.03;5147567;28;20145;-69
2023/08/15 00:49:37;;;;;;;2.10;1.83;;;21.80;99.90;;;22.36;100.00;100712.09;5140186;28;20035;-70
2023/08/15 00:52:12;;;;;;;2.15;1.70;;;21.90;99.90;;;22.37;100.00;100699.72;5162925;28;20053;-69
2023/08/15 00:54:48;;;;;;;2.40;1.55;;;21.80;99.90;;;22.36;100.00;100698.81;5164356;28;20335;-70
2023/08/15 00:57:22;;;;;;;2.22;1.75;;;21.80;99.90;;;22.35;100.00;100691.75;5163061;28;20562;-70
2023/08/15 00:59:55;;;;;;;2.78;1.80;;;21.90;99.90;;;22.34;100.00;100682.03;5163534;28;20057;-70
2023/08/15 01:02:27;;;;;;;2.03;1.70;;;21.80;99.90;;;22.33;100.00;100674.09;5161877;28;20512;-70
2023/08/15 01:04:59;;;;;;;1.88;1.50;;;21.80;99.90;;;22.30;100.00;100661.75;5162338;28;20057;-70
2023/08/15 01:07:31;;;;;;;3.53;2.08;;;21.80;99.90;;;22.27;100.00;100667.09;5147088;28;20484;-70
2023/08/15 01:10:07;;;;;;;3.35;2.00;;;21.70;99.90;;;22.25;100.00;100652.97;5162699;28;20049;-69
2023/08/15 01:12:49;;;;;;;3.08;2.13;;;21.80;99.90;;;22.22;100.00;100650.34;5157192;28;20317;-70
2023/08/15 01:15:26;;;;;;;2.08;1.73;;;21.70;99.90;;;22.20;100.00;100641.56;5163001;28;20069;-70
2023/08/15 01:18:05;;;;;;;;;;;21.70;99.90;;;22.15;100.00;100635.44;5163460;28;20042;-70
2023/08/15 01:20:40;;;;;;;3.47;2.15;;;21.70;99.90;;;22.12;100.00;100628.41;5154823;28;19961;-70
2023/08/15 01:23:15;;;;;;;2.10;1.80;;;21.70;99.90;;;22.10;100.00;100630.19;5164001;28;20050;-69
2023/08/15 01:25:50;;;;;;;3.03;2.10;;;21.60;99.90;;;22.06;100.00;100633.75;5162738;28;20039;-69
2023/08/15 01:28:23;;;;;;;3.25;2.08;;;21.60;99.90;;;22.04;100.00;100643.53;5162653;28;20301;-70
2023/08/15 01:31:04;;;;;;;3.22;2.40;;;21.60;99.90;;;22.02;100.00;100649.75;5162288;28;20038;-70
2023/08/15 01:33:40;;;;;;;2.50;2.03;;;21.60;99.90;;;22.00;100.00;100646.25;5163785;28;20042;-70
2023/08/15 01:36:22;;;;;;;3.63;2.20;;;21.60;99.90;;;22.00;100.00;100651.56;5146000;28;20042;-70
2023/08/15 01:39:00;;;;;;;2.03;1.73;;;21.60;99.90;;;22.01;100.00;100663.91;5163495;28;20061;-70
2023/08/15 01:41:40;;;;;;;2.58;1.60;;;21.60;99.90;;;22.02;100.00;100676.28;5162228;28;20048;-70
2023/08/15 01:44:14;;;;;;;3.17;1.90;;;21.50;99.90;;;22.02;100.00;100681.59;5161533;28;20054;-70
2023/08/15 01:46:47;;;;;;;2.40;2.10;;;21.50;99.90;;;22.01;100.00;100678.06;5162051;28;20045;-69
2023/08/15 01:49:19;;;;;;;2.40;1.85;;;21.60;99.90;;;22.01;100.00;100682.50;5145581;28;20050;-69
2023/08/15 01:51:54;;;;;;;3.00;1.95;;;21.50;99.90;;;22.00;100.00;100678.97;5163251;28;20063;-70
2023/08/15 01:54:26;;;;;;;1.85;1.42;;;21.50;99.90;;;21.99;100.00;100684.31;5161683;28;20042;-69
2023/08/15 01:56:59;;;;;;;2.55;1.85;;;21.50;99.90;;;21.95;100.00;100675.50;5125829;28;20456;-70
2023/08/15 01:59:32;;;;;;;4.55;2.25;;;21.50;99.90;;;21.92;100.00;100675.56;5144869;28;20579;-70
2023/08/15 02:02:06;;;;;;;2.38;1.80;;;21.50;99.90;;;21.89;100.00;100687.06;5161603;28;20432;-70
2023/08/15 02:04:39;;;;;;;2.60;1.88;;;21.40;99.90;;;21.86;100.00;100687.13;5162966;28;20617;-70
2023/08/15 02:07:11;;;;;;;2.85;1.73;;;21.40;99.90;;;21.85;100.00;100682.72;5161383;28;20050;-69
2023/08/15 02:09:43;;;;;;;3.55;1.80;;;21.40;99.90;;;21.85;100.00;100680.06;5162925;28;20049;-70
2023/08/15 02:12:17;;;;;;;3.58;1.75;;;21.40;99.90;;;21.82;100.00;100680.09;5161597;28;20148;-70
2023/08/15 02:14:49;;;;;;;2.25;1.85;;;21.40;99.90;;;21.81;100.00;100683.66;5161519;28;20236;-70
2023/08/15 02:17:21;;;;;;;3.55;1.70;;;21.30;99.90;;;21.81;100.00;100686.28;5145587;28;20217;-70
2023/08/15 02:19:55;;;;;;;2.17;1.70;;;21.30;99.90;;;21.80;100.00;100681.03;5161030;28;20657;-70
2023/08/15 02:22:27;;;;;;;2.63;1.95;;;21.30;99.90;;;21.80;100.00;100676.59;5161334;28;20599;-69
2023/08/15 02:24:59;;;;;;;2.20;1.70;;;21.30;99.90;;;21.81;100.00;100673.03;5161496;28;20045;-70
2023/08/15 02:27:33;;;;;;;2.72;1.83;;;21.30;99.90;;;21.84;100.00;100667.69;5145222;28;20504;-69
2023/08/15 02:30:08;;;;;;;2.97;2.20;;;21.40;99.90;;;21.87;100.00;100669.41;5161096;28;20042;-70
2023/08/15 02:32:40;;;;;;;3.00;1.85;;;21.40;99.90;;;21.89;100.00;100672.91;5161340;28;20130;-69
2023/08/15 02:35:13;;;;;;;2.33;1.75;;;21.40;99.90;;;21.90;100.00;100672.91;5144871;28;20043;-70
2023/08/15 02:37:45;;;;;;;4.00;1.98;;;21.40;99.90;;;21.88;100.00;100669.41;5153917;28;20050;-70
2023/08/15 02:40:17;;;;;;;2.50;1.80;;;21.40;99.90;;;21.90;100.00;100675.53;5160932;28;20137;-70
2023/08/15 02:42:51;;;;;;;3.88;1.80;;;21.40;99.90;;;21.91;100.00;100690.59;5161042;28;20047;-70
2023/08/15 02:45:24;;;;;;;2.28;1.92;;;21.40;99.90;;;21.91;100.00;100690.59;5161220;28;20053;-70
2023/08/15 02:47:56;;;;;;;3.22;2.08;;;21.40;99.90;;;21.93;100.00;100707.38;5164765;28;20426;-70
2023/08/15 02:50:28;;;;;;;3.28;1.90;;;21.40;99.90;;;21.97;100.00;100709.97;5164857;28;20452;-70
2023/08/15 02:53:01;;;;;;;2.40;1.63;;;21.50;99.90;;;22.01;100.00;100724.97;5148806;28;20052;-70
2023/08/15 02:55:34;;;;;;;2.15;1.88;;;21.50;99.90;;;22.06;100.00;100721.34;5165290;28;20780;-70
2023/08/15 02:58:07;;;;;;;2.55;1.88;;;21.50;99.90;;;22.09;100.00;100717.81;5166549;28;20038;-70
2023/08/15 03:00:39;;;;;;;3.05;1.80;;;21.60;99.90;;;22.09;100.00;100710.72;5164766;28;20559;-69
2023/08/15 03:03:12;;;;;;;3.92;2.55;;;21.60;99.90;;;22.08;100.00;100710.72;5166349;28;20047;-69
2023/08/15 03:05:44;;;;;;;2.80;2.15;;;21.60;99.90;;;22.03;100.00;100732.00;5148666;28;20534;-69
2023/08/15 03:08:16;;;;;;;3.22;2.30;;;21.60;99.90;;;21.98;100.00;100739.16;5148714;28;20050;-69
2023/08/15 03:10:50;;;;;;;3.17;2.40;;;21.60;99.90;;;21.91;100.00;100740.13;5164864;28;20087;-70
2023/08/15 03:13:23;;;;;;;4.55;2.30;;;21.50;99.90;;;21.89;100.00;100749.88;5165755;28;20414;-70
2023/08/15 03:15:58;;;;;;;5.03;2.47;;;21.50;99.90;;;21.89;100.00;100740.13;5164705;28;20523;-69
2023/08/15 03:18:34;;;;;;;4.97;2.53;;;21.50;99.90;;;21.89;100.00;100744.56;5164497;28;20420;-69
2023/08/15 03:21:08;;;;;;;3.40;2.47;;;21.50;99.90;;;21.89;100.00;100764.03;5148548;28;20122;-69
2023/08/15 03:23:40;;;;;;;5.25;2.85;;;21.50;99.90;;;21.87;100.00;100760.50;5164385;28;20062;-69
2023/08/15 03:26:13;;;;;;;5.38;3.13;;;21.40;99.90;;;21.86;100.00;100787.94;5164940;28;20131;-69
2023/08/15 03:28:48;;;;;;;5.75;3.40;;;21.40;99.90;;;21.84;100.00;100794.16;5164785;28;20045;-70
2023/08/15 03:31:21;;;;;;;5.22;3.53;;;21.40;99.90;;;21.79;100.00;100802.19;5164270;28;20074;-69
2023/08/15 03:33:58;;;;;;;5.43;3.65;;;21.40;99.90;;;21.78;100.00;100800.44;5165773;28;20031;-69
2023/08/15 03:36:30;;;;;;;6.60;4.10;;;21.40;99.90;;;21.75;100.00;100776.56;5164159;28;20050;-69
2023/08/15 03:39:03;;;;;;;5.70;3.58;;;21.40;99.90;;;21.76;100.00;100780.09;5164164;28;20101;-69
2023/08/15 03:41:35;;;;;;;7.13;3.97;;;21.40;99.90;;;21.79;100.00;100770.34;5165242;28;20088;-69
2023/08/15 03:44:09;;;;;;;6.43;3.80;;;21.40;99.90;;;21.83;100.00;100761.44;5147972;28;20509;-69
2023/08/15 03:46:42;;;;;;;5.18;3.75;;;21.40;99.90;;;21.86;100.00;100756.09;5165500;28;20081;-69
2023/08/15 03:49:14;;;;;;;5.18;3.40;;;21.40;99.90;;;21.88;100.00;100735.72;5164062;28;20419;-70
2023/08/15 03:51:46;;;;;;;8.50;3.53;;;21.50;99.90;;;21.86;100.00;100724.28;5163760;28;20133;-69
2023/08/15 03:54:19;;;;;;;4.30;3.03;;;21.50;99.90;;;21.85;100.00;100727.81;5147976;28;20042;-69
2023/08/15 03:56:52;;;;;;;4.28;2.80;;;21.50;99.90;;;21.85;100.00;100727.81;5164051;28;20420;-70
2023/08/15 03:59:27;;;;;;;4.57;2.80;;;21.50;99.90;;;21.85;100.00;100711.91;5162784;28;20042;-69
2023/08/15 04:01:59;;;;;;;4.60;3.20;;;21.50;99.90;;;21.83;100.00;100696.88;5163520;28;20047;-69
2023/08/15 04:04:32;;;;;;;4.28;2.83;;;21.50;99.90;;;21.77;100.00;100703.13;5163638;28;20381;-69
2023/08/15 04:07:04;;;;;;;6.13;3.22;;;21.40;99.90;;;21.76;100.00;100722.63;5147593;28;20088;-69
2023/08/15 04:09:36;;;;;;;6.18;3.22;;;21.40;99.90;;;21.74;100.00;100727.06;5163553;28;20057;-69
2023/08/15 04:12:09;;;;;;;5.53;2.95;;;21.40;99.90;;;21.65;100.00;100729.84;5163503;28;20523;-70
2023/08/15 04:14:42;;;;;;;6.82;3.20;;;21.40;99.90;;;21.58;100.00;100744.03;5163775;28;20038;-69
2023/08/15 04:17:15;;;;;;;6.10;2.35;;;21.30;99.90;;;21.50;100.00;100775.97;5164127;28;20077;-69
2023/08/15 04:19:48;;;;;;;4.68;2.20;;;21.20;99.90;;;21.44;100.00;100815.78;5147138;28;20049;-69
2023/08/15 04:22:21;;;;;;;3.70;2.03;;;21.10;99.90;;;21.41;100.00;100818.50;5163801;28;20057;-69
2023/08/15 04:24:53;;;;;;;3.08;1.70;;;21.10;99.90;;;21.38;100.00;100819.38;5155725;28;20044;-70
2023/08/15 04:27:25;;;;;;;2.70;1.50;;;21.00;99.90;;;21.37;100.00;100822.03;5165083;28;20074;-69
2023/08/15 04:29:59;;;;;;;2.00;1.40;;;21.00;99.90;;;21.36;100.00;100821.16;5163516;28;20038;-69
2023/08/15 04:32:31;;;;;;;3.33;1.48;;;20.90;99.90;;;21.33;100.00;100823.88;5148356;28;20444;-69
2023/08/15 04:35:04;;;;;;;2.72;1.42;;;21.00;99.90;;;21.30;100.00;100802.66;5147349;28;20041;-69
2023/08/15 04:37:36;;;;;;;3.42;1.65;;;20.90;99.90;;;21.24;100.00;100812.41;5163519;28;20416;-69
2023/08/15 04:40:13;;;;;;;3.05;1.52;;;20.90;99.90;;;21.17;100.00;100810.72;5163353;28;20038;-69
2023/08/15 04:42:45;;;;;;;3.33;1.55;;;20.80;99.90;;;21.13;100.00;100815.19;5162946;28;20046;-69
2023/08/15 04:45:19;;;;;;;3.65;1.38;;;20.80;99.90;;;21.12;100.00;100813.38;5163326;28;20042;-70
2023/08/15 04:47:51;;;;;;;2.50;1.30;;;20.80;99.90;;;21.12;100.00;100814.25;5147309;28;20405;-69
2023/08/15 04:50:24;;;;;;;3.60;1.48;;;20.70;99.90;;;21.11;100.00;100807.22;5163072;28;20054;-69
2023/08/15 04:52:57;;;;;;;2.10;1.25;;;20.70;99.90;;;21.13;100.00;100815.19;5163485;28;20397;-70
2023/08/15 04:55:30;;;;;;;2.55;1.40;;;20.70;99.90;;;21.13;100.00;100825.78;5146908;28;20038;-69
2023/08/15 04:58:02;;;;;;;1.65;1.20;;;20.70;99.90;;;21.13;100.00;100831.06;5163387;28;20053;-70
2023/08/15 05:00:36;;;;;;;3.42;1.38;;;20.70;99.90;;;21.11;100.00;100832.84;5144014;28;20070;-70
2023/08/15 05:03:10;;;;;;;1.85;1.30;;;20.70;99.90;;;21.11;100.00;100835.50;5164438;28;20105;-69
2023/08/15 05:05:42;;;;;;;2.47;1.20;;;20.70;99.90;;;21.11;100.00;100843.44;5162797;28;20046;-69
2023/08/15 05:08:14;;;;;;;1.98;1.40;;;20.70;99.90;;;21.12;100.00;100851.38;5142586;28;20058;-70
2023/08/15 05:10:47;;;;;;;1.38;1.13;;;20.70;99.90;;;21.11;100.00;100854.91;5177282;28;20049;-69
2023/08/15 05:13:19;;;;;;;1.90;1.38;;;20.70;99.90;;;21.13;100.00;100846.97;5164584;28;20504;-70
2023/08/15 05:15:53;;;;;;;2.65;1.38;;;20.70;99.90;;;21.14;100.00;100854.03;5162897;28;20044;-69
2023/08/15 05:18:26;;;;;;;2.60;1.13;;;20.70;99.90;;;21.15;100.00;100834.59;5146605;28;20053;-70
2023/08/15 05:20:58;;;;;;;2.05;1.52;;;20.70;99.90;;;21.13;100.00;100831.94;5162173;28;20076;-70
2023/08/15 05:23:31;;;;;;;2.72;1.58;;;20.70;99.90;;;21.10;100.00;100831.09;5162410;28;20125;-69
2023/08/15 05:26:03;;;;;;;2.50;1.50;;;20.70;99.90;;;21.07;100.00;100823.16;5162789;28;20047;-69
2023/08/15 05:28:36;;;;;;;2.30;1.52;;;20.70;99.90;;;21.08;100.00;100838.19;5162156;28;20086;-70
2023/08/15 05:31:10;;;;;;;2.10;1.50;;;20.70;99.90;;;21.10;100.00;100836.38;5162224;28;20042;-70
2023/08/15 05:33:43;;;;;;;1.65;1.20;;;20.70;99.90;;;21.14;100.00;100841.66;5162083;28;20042;-69
2023/08/15 05:36:15;;;;;;;1.92;1.20;;;20.80;99.90;;;21.18;100.00;100837.19;5162439;28;20060;-69
2023/08/15 05:38:47;;;;;;;2.35;1.45;;;20.80;99.90;;;21.21;100.00;100834.53;5162049;28;20078;-69
2023/08/15 05:41:19;;;;;;;3.58;1.80;;;20.80;99.90;;;21.24;100.00;100844.22;5162522;28;20070;-69
2023/08/15 05:43:51;;;;;;;2.60;1.30;;;20.80;99.90;;;21.29;100.00;100848.63;5161837;28;20504;-70
2023/08/15 05:46:25;;;;;;;2.25;1.50;;;20.90;99.90;;;21.36;100.00;100852.13;5162615;28;20050;-69
2023/08/15 05:48:57;;;;;;;2.05;1.35;;;21.00;99.90;;;21.39;100.00;100850.31;5154611;28;20046;-70
2023/08/15 05:51:29;;;;;;;2.75;1.50;;;21.00;99.90;;;21.39;100.00;100863.59;5145363;28;20093;-70
2023/08/15 05:54:01;;;;;;;2.05;1.42;;;21.00;99.90;;;21.42;100.00;100875.06;5163003;28;20121;-69
2023/08/15 05:56:34;;;;;;;2.38;1.50;;;21.00;99.90;;;21.45;100.00;100872.34;5163177;28;20053;-70
2023/08/15 05:59:06;;;;;;;1.95;1.42;;;21.00;99.90;;;21.51;100.00;100882.91;5145870;28;20419;-70
2023/08/15 06:01:40;;;;;;;2.45;1.23;;;21.10;99.90;;;21.63;100.00;100888.13;5161585;28;20050;-70
2023/08/15 06:04:12;;;;;;;2.28;1.25;;;21.20;99.90;;;21.79;100.00;100881.78;5163123;28;20046;-73
2023/08/15 06:06:45;;;;;;;2.30;1.42;;;21.30;99.90;;;21.98;100.00;100882.47;5162845;28;20052;-73
2023/08/15 06:09:17;;;;;;;2.85;1.55;;;21.50;99.90;;;22.09;100.00;100877.06;5161746;28;20141;-73
2023/08/15 06:11:50;;;;;;;3.40;1.50;;;21.60;99.90;;;22.23;100.00;100872.47;5163168;28;20050;-74
2023/08/15 06:14:22;;;;;;;1.50;1.40;;;21.70;99.90;;;22.42;100.00;100876.66;5161781;28;20496;-73
2023/08/15 06:16:55;;;;;;;2.35;1.58;;;21.90;99.90;;;22.64;100.00;100874.63;5162864;28;20042;-74
2023/08/15 06:19:28;;;;;;;2.72;1.35;;;22.10;99.90;;;23.05;100.00;100874.97;5161558;28;20054;-73
2023/08/15 06:22:00;;;;;;;2.38;1.38;;;22.40;99.90;;;23.37;100.00;100874.44;5136849;28;20046;-60
2023/08/15 06:24:32;;;;;;;1.40;1.15;;;22.70;99.90;;;23.50;100.00;100873.34;5162331;28;20046;-60
2023/08/15 06:27:04;;;;;;;2.80;1.48;;;22.90;99.90;;;23.59;100.00;100885.59;5162539;28;20046;-60
2023/08/15 06:29:37;;;;;;;3.28;1.45;;;22.90;99.90;;;23.77;100.00;100872.88;5162346;28;20050;-61
2023/08/15 06:32:26;;;;;;;2.38;1.40;;;23.10;99.90;;;24.08;100.00;100889.16;5162340;28;20054;-62
2023/08/15 06:34:58;;;;;;;2.25;1.30;;;23.30;99.90;;;24.34;100.00;100896.66;5162098;28;20101;-60
2023/08/15 06:37:30;;;;;;;1.52;1.20;;;23.60;99.90;;;24.41;100.00;100897.41;5162195;28;20046;-61
2023/08/15 06:40:03;;;;;;;2.22;1.30;;;23.70;99.90;;;24.32;100.00;100909.13;5152664;28;20049;-61
2023/08/15 06:42:35;;;;;;;2.08;1.45;;;23.70;99.90;;;24.19;100.00;100914.69;5161368;28;20073;-60
2023/08/15 06:45:11;;;;;;;1.65;1.10;;;23.60;99.90;;;24.13;100.00;100906.84;5161369;28;20132;-60
2023/08/15 06:47:44;;;;;;;2.10;1.33;;;23.60;99.90;;;24.04;100.00;100903.44;5162031;28;20133;-60
2023/08/15 06:50:17;;;;;;;3.30;1.48;;;23.50;99.90;;;24.18;100.00;100899.63;5162188;28;20042;-61
2023/08/15 06:52:49;;;;;;;1.85;1.40;;;23.50;99.90;;;24.61;100.00;100889.88;5161873;28;20047;-60
2023/08/15 06:55:21;;;;;;;3.40;1.65;;;23.80;99.90;;;25.09;100.00;100902.16;5162402;28;20085;-60
2023/08/15 06:57:54;;;;;;;3.30;1.50;;;24.20;99.90;;;25.38;100.00;100909.50;5161008;28;20050;-60
2023/08/15 07:00:26;;;;;;;2.10;1.33;;;24.60;99.90;;;25.61;100.00;100912.44;5160886;28;20054;-59
2023/08/15 07:02:59;;;;;;;2.25;1.27;;;24.80;99.90;;;25.67;100.00;100922.97;5161857;28;20420;-59
2023/08/15 07:05:31;;;;;;;3.08;1.35;;;24.90;99.90;;;25.69;100.00;100920.25;5162417;28;20497;-61
2023/08/15 07:08:04;;;;;;;2.88;1.30;;;24.90;99.90;;;25.66;100.00;100925.69;5154756;28;20053;-60
2023/08/15 07:10:36;;;;;;;2.92;1.15;;;25.00;99.90;;;25.60;100.00;100932.03;5161960;28;20054;-60
2023/08/15 07:13:08;;;;;;;1.90;1.25;;;24.90;99.90;;;25.47;100.00;100925.25;5162368;28;20065;-60
2023/08/15 07:15:41;;;;;;;3.00;1.40;;;24.90;99.90;;;25.30;100.00;100919.44;5157645;28;20038;-61
2023/08/15 07:18:15;;;;;;;2.10;1.30;;;24.70;99.90;;;25.22;100.00;100929.44;5155201;28;20081;-59
2023/08/15 07:20:48;;;;;;;2.40;1.40;;;24.60;99.90;;;25.29;100.00;100925.69;5159701;28;20105;-60
2023/08/15 07:23:21;;;;;;;3.05;1.50;;;24.60;99.90;;;25.41;100.00;100920.94;5156042;28;20054;-61
2023/08/15 07:25:53;;;;;;;4.22;1.63;;;24.60;99.90;;;25.45;100.00;100924.44;5161105;28;20074;-61
2023/08/15 07:28:28;;;;;;;3.53;1.30;;;24.70;99.90;;;25.31;100.00;100914.09;5160384;28;20061;-60
2023/08/15 07:31:00;;;;;;;2.55;1.42;;;24.60;99.90;;;25.13;100.00;100910.06;5157068;28;20038;-60
2023/08/15 07:33:33;;;;;;;2.13;1.48;;;24.50;99.90;;;24.87;100.00;100907.97;5158948;28;20507;-60
2023/08/15 07:36:06;;;;;;;1.65;1.27;;;24.30;99.90;;;24.57;100.00;100909.50;5158110;28;20031;-59
2023/08/15 07:38:38;;;;;;;1.80;1.30;;;24.10;99.90;;;24.39;100.00;100920.56;5165907;28;20046;-60
2023/08/15 07:41:10;;;;;;;1.98;1.40;;;24.00;99.90;;;24.28;100.00;100938.50;5170188;28;20054;-60
2023/08/15 07:43:42;;;;;;;2.92;1.27;;;23.80;99.90;;;24.19;100.00;100954.63;5166090;28;20408;-60
2023/08/15 07:46:15;;;;;;;1.60;1.02;;;23.70;99.90;;;24.15;100.00;100960.94;5164567;28;20150;-59
2023/08/15 07:48:48;;;;;;;2.67;1.15;;;23.70;99.90;;;24.12;100.00;100955.66;5161707;28;20053;-59
2023/08/15 07:51:20;;;;;;;1.95;1.15;;;23.60;99.90;;;24.06;100.00;100933.59;5165399;28;20408;-60
2023/08/15 07:53:52;;;;;;;1.90;1.30;;;23.50;99.90;;;24.07;100.00;100939.78;5163571;28;20117;-61
2023/08/15 07:56:24;;;;;;;2.65;1.20;;;23.50;99.90;;;24.14;100.00;100936.09;5155852;28;20066;-74
2023/08/15 07:58:56;;;;;;;2.70;1.27;;;23.50;99.90;;;24.17;100.00;100940.47;5163392;28;20057;-72
2023/08/15 08:01:29;;;;;;;1.33;1.13;;;23.50;99.90;;;24.18;100.00;100936.91;5163478;28;20057;-72
2023/08/15 08:04:02;;;;;;;2.03;1.25;;;23.50;99.90;;;24.20;100.00;100956.41;5164578;28;20042;-72
2023/08/15 08:06:34;;;;;;;1.95;1.20;;;23.50;99.90;;;24.20;100.00;100956.41;5165849;28;20053;-73
2023/08/15 08:09:08;;;;;;;2.58;1.20;;;23.50;99.90;;;24.18;100.00;100960.88;5164649;28;20046;-74
2023/08/15 08:11:40;;;;;;;3.25;1.20;;;23.50;99.90;;;24.11;100.00;100968.09;5165810;28;20050;-72
2023/08/15 08:14:12;;;;;;;1.67;1.05;;;23.50;99.90;;;24.06;100.00;100959.31;5165730;28;20500;-72
2023/08/15 08:16:44;;;;;;;1.85;1.20;;;23.40;99.90;;;24.03;100.00;100970.91;5166323;28;20568;-72
2023/08/15 08:19:18;;;;;;;1.60;1.02;;;23.40;99.90;;;24.04;100.00;100971.78;5165290;28;20038;-73
2023/08/15 08:21:50;;;;;;;2.22;1.15;;;23.40;99.90;;;24.04;100.00;100966.44;5165149;28;20140;-72
2023/08/15 08:24:22;;;;;;;1.45;1.10;;;23.40;99.90;;;24.23;100.00;100964.34;5165096;28;20053;-72
2023/08/15 08:26:54;;;;;;;1.88;1.15;;;23.50;99.90;;;24.41;100.00;100969.34;5165722;28;20522;-74
2023/08/15 08:29:26;;;;;;;1.60;1.10;;;23.60;99.90;;;24.61;100.00;100979.63;5165520;28;20504;-72
2023/08/15 08:31:59;;;;;;;2.95;1.13;;;23.70;99.90;;;25.00;100.00;100979.69;5165140;28;20461;-72
2023/08/15 08:34:33;;;;;;;2.65;1.25;;;23.80;99.90;;;25.45;100.00;100980.47;5165341;28;20412;-77
2023/08/15 08:37:05;;;;;;;1.83;1.25;;;24.10;99.90;;;25.70;100.00;100970.97;5163893;28;20069;-72
2023/08/15 08:39:37;;;;;;;2.42;1.13;;;24.30;99.90;;;26.03;100.00;100967.50;5147978;28;20050;-72
2023/08/15 08:42:10;;;;;;;2.47;1.52;;;24.50;99.90;;;26.17;100.00;100974.22;5163801;28;20058;-73
2023/08/15 08:44:43;;;;;;;2.60;1.30;;;24.60;99.90;;;26.09;100.00;100981.56;5162931;28;20555;-73
2023/08/15 08:47:16;;;;;;;1.50;1.20;;;24.70;99.90;;;25.80;100.00;100987.63;5147545;28;20055;-73
2023/08/15 08:49:50;;;;;;;1.70;1.20;;;24.60;99.90;;;25.50;100.00;100985.72;5147398;28;20046;-76
2023/08/15 08:52:23;;;;;;;1.90;1.50;;;24.40;99.90;;;25.24;100.00;100981.84;5143667;28;20532;-73
2023/08/15 08:54:55;;;;;;;3.13;1.35;;;24.30;99.90;;;25.07;100.00;100982.22;5163023;28;20069;-73
2023/08/15 08:57:32;;;;;;;3.22;1.50;;;24.20;99.90;;;25.12;100.00;100980.34;5165026;28;20042;-72
2023/08/15 09:00:09;;;;;;;2.70;1.65;;;24.20;99.90;;;25.78;100.00;100975.25;5163251;28;20620;-73
2023/08/15 09:02:42;;;;;;;2.28;1.67;;;24.50;99.90;;;26.42;100.00;100997.66;5164707;28;20058;-73
2023/08/15 09:05:15;;;;;;;3.28;1.38;;;24.90;99.90;;;26.48;100.00;100998.34;5157153;28;20045;-72
2023/08/15 09:07:48;;;;;;;2.92;1.38;;;25.10;99.90;;;26.23;100.00;100987.41;5164786;28;20046;-72
2023/08/15 09:10:23;;;;;;;2.25;1.42;;;25.10;99.90;;;25.86;100.00;100981.28;5147078;28;20507;-72
2023/08/15 09:13:00;;;;;;;1.65;1.48;;;24.90;99.90;;;25.64;100.00;100986.25;5163560;28;20125;-75
2023/08/15 09:15:32;;;;;;;2.30;1.50;;;24.80;99.90;;;25.55;100.00;100994.47;5163713;28;20552;-72
2023/08/15 09:18:07;;;;;;;2.65;1.42;;;24.70;99.90;;;25.49;100.00;100999.94;5164403;28;20424;-74
2023/08/15 09:20:46;;;;;;;2.30;1.63;;;24.70;99.90;;;25.44;100.00;101005.41;5164216;28;20505;-72
2023/08/15 09:23:19;;;;;;;3.83;1.73;;;24.60;99.90;;;25.34;100.00;101010.06;5155631;28;20113;-72
2023/08/15 09:25:55;;;;;;;1.90;1.50;;;24.60;99.90;;;25.29;100.00;101011.06;5164150;28;20038;-72
2023/08/15 09:28:28;;;;;;;3.05;1.88;;;24.50;99.90;;;25.19;100.00;101010.41;5164422;28;20415;-73
2023/08/15 09:31:04;;;;;;;3.25;1.80;;;24.50;99.90;;;25.15;100.00;101014.91;5163812;28;20058;-73
2023/08/15 09:33:37;;;;;;;2.72;1.80;;;24.40;99.90;;;25.34;100.00;101009.19;5127422;28;20052;-73
2023/08/15 09:36:11;;;;;;;2.78;2.10;;;24.50;99.90;;;25.65;100.00;101015.56;5163414;28;20051;-72
2023/08/15 09:38:43;;;;;;;;;;;24.70;99.90;;;25.80;100.00;101008.13;5164762;28;20050;-78
2023/08/15 09:41:15;;;;;;;3.55;2.25;;;24.90;99.90;;;26.08;100.00;101014.53;5156281;28;19925;-73
2023/08/15 09:43:51;;;;;;;3.97;2.45;;;25.10;99.90;;;26.36;100.00;101027.19;5162566;28;20050;-72
2023/08/15 09:46:24;;;;;;;4.57;2.47;;;25.30;99.90;;;26.31;100.00;101026.41;5164376;28;20053;-72
2023/08/15 09:48:58;;;;;;;4.38;2.08;;;25.40;99.90;;;26.30;100.00;101033.56;5162758;28;20093;-72
2023/08/15 09:51:33;;;;;;;3.13;2.20;;;25.40;99.90;;;26.29;100.00;101030.94;5162752;28;20258;-72
2023/08/15 09:54:07;;;;;;;3.15;2.28;;;25.40;99.90;;;26.14;100.00;101024.16;5163840;28;20050;-73
2023/08/15 09:56:39;;;;;;;;;;;25.30;99.90;;;25.98;100.00;101029.03;5164224;28;20046;-72
2023/08/15 09:59:11;;;;;;;4.38;2.35;;;25.20;99.90;;;25.91;100.00;101032.78;5163886;28;19929;-74
2023/08/15 10:01:46;;;;;;;4.10;2.67;;;25.20;99.90;;;25.81;100.00;101039.25;5163725;28;20050;-73
2023/08/15 10:04:22;;;;;;;4.75;2.60;;;25.10;99.90;;;25.72;100.00;101040.31;5155857;28;20416;-72
2023/08/15 10:06:56;;;;;;;5.47;2.80;;;25.00;99.90;;;25.70;100.00;101040.38;5163602;28;20448;-72
2023/08/15 10:09:28;;;;;;;;;;;24.90;99.90;;;25.64;100.00;101034.28;5162827;28;20058;-72
2023/08/15 10:12:01;;;;;;;4.18;2.90;;;24.90;99.90;;;25.57;100.00;101038.03;5162104;28;19930;-72
2023/08/15 10:14:33;;;;;;;4.72;3.10;;;24.80;99.90;;;25.46;100.00;101040.06;5164312;28;20043;-74
2023/08/15 10:17:06;;;;;;;4.20;2.72;;;24.80;99.90;;;25.35;100.00;101037.63;5163563;28;20049;-73
2023/08/15 10:19:38;;;;;;;4.32;3.08;;;24.60;99.90;;;25.21;100.00;101047.72;5162267;28;20074;-73
2023/08/15 10:22:11;;;;;;;5.43;3.08;;;24.50;99.90;;;25.04;100.00;101048.97;5163119;28;20455;-72
2023/08/15 10:24:44;;;;;;;4.95;3.45;;;24.40;99.90;;;24.93;100.00;101055.41;5161973;28;20054;-76
2023/08/15 10:27:16;;;;;;;5.00;3.58;;;24.30;99.90;;;24.88;100.00;101058.16;5161899;28;20132;-73
2023/08/15 10:29:57;;;;;;;5.88;3.70;;;24.20;99.90;;;24.86;100.00;101059.97;5161437;28;20042;-74
2023/08/15 10:32:33;;;;;;;3.90;3.17;;;24.20;99.90;;;24.85;100.00;101055.56;5145850;28;20141;-72